KTLH/TLH METAR and TAF weather

Enter ICAO airport designator
Station Type Date Time Source
KTLH METAR 2021/05/11 00:53 UTC NOAA

KTLH 110053Z 00000KT 10SM SCT160 23/21 A3003 RMK AO2 SLP166 T02280206


Station Type Date Time Source
KTLH Decoded METAR 2021/05/11 00:53 UTC NOAA

TALLAHASSEE REGIONAL AIRPORT , FL, United States (KTLH) 30-24N 84-21W 16M
May 10, 2021 - 08:53 PM EDT / 2021.05.11 0053 UTC
Wind: Calm:0
Visibility: 10 mile(s):0
Sky conditions: partly cloudy
Temperature: 73.0 F (22.8 C)
Dew Point: 69.1 F (20.6 C)
Relative Humidity: 87%
Pressure (altimeter): 30.03 in. Hg (1016 hPa)
ob: KTLH 110053Z 00000KT 10SM SCT160 23/21 A3003 RMK AO2 SLP166 T02280206
cycle: 1

Station Type Date Time Source
KTLH TAF 2021/05/10 18:43 UTC NOAA

TAF KTLH 101743Z 1018/1118 34006KT P6SM VCTS SCT035CB BKN070
FM102000 25007KT P6SM VCSH OVC050
FM110000 19005KT P6SM OVC100
FM111200 27001KT 4SM BR OVC005
FM111500 26003KT P6SM OVC015

Example: see airport list